QFA25 YSSY-RJTT
Flight info
| Callsign | QFA25 |
|---|---|
| Flight time | N/A |
| Altitude | 36000 |
| Route | RIC H530 LASUD Q238 DUPUG/N0462F370 Q141 ESKUT/N0463F360 Q141 OVRON B462 APISO/N0468F380 B462 PY B586 PIKOK DCT 05N145E 10N144E 15N143E/N0463F400 20N142E 25N141E UKATA B586 CADDY/N0453F390 T871 TOPIT Y875 AROSA |
| Aircraft | A333/H-SDE3GHIJ2J3J5M1RVWXY/LB2D1 |
Departure
| Time | 2026-04-25 01:22 |
|---|---|
| Airport | Sydney Kingsford Smith International Airport (YSSY) |
Arrival
| Time | N/A |
|---|---|
| Airport | Tokyo Haneda International Airport (RJTT) |
| Time | Latitude | Longitude | Altitude | Speed | Heading |
|---|---|---|---|---|---|
| 2026-04-25 00:16 | -33.93306 | 151.16809 | 33 ft | 0 kts | 298° |
| 2026-04-25 01:05 | -33.93309 | 151.16817 | 32 ft | 2 kts | 301° |
| 2026-04-25 01:05 | -33.93317 | 151.16832 | 33 ft | 2 kts | 309° |
| 2026-04-25 01:05 | -33.93327 | 151.16846 | 32 ft | 2 kts | 315° |
| 2026-04-25 01:06 | -33.93338 | 151.16858 | 33 ft | 2 kts | 321° |
| 2026-04-25 01:06 | -33.93350 | 151.16869 | 32 ft | 2 kts | 327° |
| 2026-04-25 01:06 | -33.93363 | 151.16878 | 33 ft | 2 kts | 334° |
| 2026-04-25 01:06 | -33.93377 | 151.16884 | 33 ft | 2 kts | 340° |
| 2026-04-25 01:07 | -33.93391 | 151.16890 | 33 ft | 2 kts | 347° |
| 2026-04-25 01:07 | -33.93402 | 151.16893 | 33 ft | 0 kts | 352° |
| 2026-04-25 01:07 | -33.93404 | 151.16893 | 33 ft | 0 kts | 352° |
| 2026-04-25 01:11 | -33.93395 | 151.16891 | 32 ft | 4 kts | 353° |
| 2026-04-25 01:11 | -33.93351 | 151.16890 | 32 ft | 8 kts | 7° |
| 2026-04-25 01:11 | -33.93299 | 151.16919 | 32 ft | 7 kts | 41° |
| 2026-04-25 01:11 | -33.93283 | 151.16971 | 32 ft | 6 kts | 97° |
| 2026-04-25 01:12 | -33.93301 | 151.17013 | 32 ft | 5 kts | 125° |
| 2026-04-25 01:12 | -33.93327 | 151.17042 | 32 ft | 6 kts | 146° |
| 2026-04-25 01:12 | -33.93380 | 151.17070 | 32 ft | 9 kts | 165° |
| 2026-04-25 01:12 | -33.93459 | 151.17090 | 32 ft | 12 kts | 169° |
| 2026-04-25 01:13 | -33.93545 | 151.17111 | 32 ft | 11 kts | 169° |
| 2026-04-25 01:13 | -33.93620 | 151.17129 | 32 ft | 9 kts | 168° |
| 2026-04-25 01:13 | -33.93687 | 151.17148 | 32 ft | 9 kts | 167° |
| 2026-04-25 01:13 | -33.93755 | 151.17166 | 32 ft | 10 kts | 168° |
| 2026-04-25 01:14 | -33.93832 | 151.17186 | 32 ft | 13 kts | 168° |
| 2026-04-25 01:14 | -33.93883 | 151.17200 | 32 ft | 3 kts | 167° |
| 2026-04-25 01:14 | -33.93884 | 151.17200 | 32 ft | 0 kts | 167° |
| 2026-04-25 01:15 | -33.93893 | 151.17203 | 32 ft | 3 kts | 167° |
| 2026-04-25 01:15 | -33.93924 | 151.17210 | 32 ft | 4 kts | 168° |
| 2026-04-25 01:15 | -33.93968 | 151.17221 | 32 ft | 9 kts | 168° |
| 2026-04-25 01:16 | -33.94058 | 151.17242 | 32 ft | 15 kts | 168° |
| 2026-04-25 01:16 | -33.94163 | 151.17273 | 32 ft | 14 kts | 167° |
| 2026-04-25 01:16 | -33.94262 | 151.17299 | 32 ft | 14 kts | 167° |
| 2026-04-25 01:16 | -33.94363 | 151.17325 | 32 ft | 15 kts | 168° |
| 2026-04-25 01:17 | -33.94471 | 151.17354 | 32 ft | 16 kts | 168° |
| 2026-04-25 01:17 | -33.94584 | 151.17383 | 32 ft | 16 kts | 168° |
| 2026-04-25 01:17 | -33.94704 | 151.17413 | 32 ft | 18 kts | 168° |
| 2026-04-25 01:17 | -33.94835 | 151.17448 | 32 ft | 19 kts | 167° |
| 2026-04-25 01:18 | -33.94974 | 151.17484 | 32 ft | 21 kts | 168° |
| 2026-04-25 01:18 | -33.95121 | 151.17528 | 32 ft | 22 kts | 165° |
| 2026-04-25 01:18 | -33.95278 | 151.17566 | 32 ft | 23 kts | 169° |
| 2026-04-25 01:18 | -33.95446 | 151.17607 | 32 ft | 27 kts | 168° |
| 2026-04-25 01:19 | -33.95641 | 151.17659 | 32 ft | 28 kts | 167° |
| 2026-04-25 01:19 | -33.95831 | 151.17706 | 32 ft | 27 kts | 168° |
| 2026-04-25 01:19 | -33.96014 | 151.17754 | 32 ft | 26 kts | 168° |
| 2026-04-25 01:19 | -33.96190 | 151.17799 | 32 ft | 25 kts | 168° |
| 2026-04-25 01:20 | -33.96313 | 151.17831 | 32 ft | 10 kts | 168° |
| 2026-04-25 01:20 | -33.96381 | 151.17848 | 32 ft | 9 kts | 168° |
| 2026-04-25 01:20 | -33.96437 | 151.17908 | 32 ft | 13 kts | 101° |
| 2026-04-25 01:20 | -33.96426 | 151.17999 | 32 ft | 8 kts | 78° |
| 2026-04-25 01:21 | -33.96394 | 151.18053 | 32 ft | 7 kts | 19° |
| 2026-04-25 01:21 | -33.96342 | 151.18045 | 32 ft | 7 kts | 349° |
| 2026-04-25 01:21 | -33.96205 | 151.18012 | 32 ft | 44 kts | 347° |
| 2026-04-25 01:21 | -33.95681 | 151.17871 | 33 ft | 106 kts | 348° |
| 2026-04-25 01:22 | -33.94780 | 151.17636 | 33 ft | 158 kts | 348° |
| 2026-04-25 01:22 | -33.93566 | 151.17317 | 162 ft | 188 kts | 347° |
| 2026-04-25 01:22 | -33.92318 | 151.16978 | 832 ft | 181 kts | 347° |
| 2026-04-25 01:22 | -33.91103 | 151.16631 | 1449 ft | 183 kts | 348° |
| 2026-04-25 01:23 | -33.89909 | 151.16127 | 1936 ft | 186 kts | 329° |
| 2026-04-25 01:23 | -33.89007 | 151.14916 | 2101 ft | 203 kts | 304° |
| 2026-04-25 01:23 | -33.88140 | 151.13530 | 2308 ft | 216 kts | 314° |
| 2026-04-25 01:23 | -33.87087 | 151.12143 | 2508 ft | 230 kts | 314° |
| 2026-04-25 01:24 | -33.85968 | 151.10684 | 2779 ft | 243 kts | 315° |
| 2026-04-25 01:24 | -33.84768 | 151.09161 | 3094 ft | 259 kts | 315° |
| 2026-04-25 01:24 | -33.83509 | 151.07581 | 3700 ft | 264 kts | 315° |
| 2026-04-25 01:24 | -33.82267 | 151.06003 | 4468 ft | 261 kts | 315° |
| 2026-04-25 01:25 | -33.81001 | 151.04413 | 5113 ft | 264 kts | 315° |
| 2026-04-25 01:25 | -33.79734 | 151.02826 | 5716 ft | 267 kts | 315° |
| 2026-04-25 01:25 | -33.78448 | 151.01204 | 6305 ft | 271 kts | 315° |
| 2026-04-25 01:25 | -33.77124 | 150.99536 | 6831 ft | 278 kts | 315° |
| 2026-04-25 01:26 | -33.75775 | 150.97838 | 7425 ft | 282 kts | 314° |
| 2026-04-25 01:26 | -33.74431 | 150.96147 | 8032 ft | 285 kts | 314° |
| 2026-04-25 01:26 | -33.73044 | 150.94402 | 8632 ft | 289 kts | 314° |
| 2026-04-25 01:26 | -33.71651 | 150.92650 | 9205 ft | 293 kts | 314° |
| 2026-04-25 01:27 | -33.70233 | 150.90866 | 9791 ft | 296 kts | 314° |
| 2026-04-25 01:27 | -33.68800 | 150.89066 | 10305 ft | 303 kts | 314° |
| 2026-04-25 01:27 | -33.67316 | 150.87203 | 10544 ft | 320 kts | 314° |
| 2026-04-25 01:28 | -33.64069 | 150.83128 | 10929 ft | 356 kts | 314° |
| 2026-04-25 01:28 | -33.62304 | 150.80917 | 11151 ft | 371 kts | 314° |
| 2026-04-25 01:28 | -33.60520 | 150.78682 | 11706 ft | 375 kts | 314° |
| 2026-04-25 01:28 | -33.58770 | 150.76337 | 12308 ft | 376 kts | 310° |
| 2026-04-25 01:29 | -33.56880 | 150.74167 | 12758 ft | 380 kts | 319° |
| 2026-04-25 01:29 | -33.54922 | 150.72025 | 13292 ft | 384 kts | 317° |
| 2026-04-25 01:29 | -33.52975 | 150.69821 | 13821 ft | 386 kts | 317° |
| 2026-04-25 01:29 | -33.51025 | 150.67584 | 14322 ft | 389 kts | 316° |
| 2026-04-25 01:30 | -33.49057 | 150.65315 | 14796 ft | 393 kts | 316° |
| 2026-04-25 01:30 | -33.47082 | 150.63034 | 15313 ft | 395 kts | 316° |
| 2026-04-25 01:30 | -33.45114 | 150.60759 | 15810 ft | 398 kts | 316° |
| 2026-04-25 01:30 | -33.43122 | 150.58460 | 16280 ft | 402 kts | 316° |
| 2026-04-25 01:31 | -33.41089 | 150.56111 | 16747 ft | 405 kts | 316° |
| 2026-04-25 01:31 | -33.39046 | 150.53754 | 17194 ft | 409 kts | 316° |
| 2026-04-25 01:31 | -33.37007 | 150.51404 | 17678 ft | 411 kts | 316° |
| 2026-04-25 01:31 | -33.34923 | 150.49002 | 18113 ft | 414 kts | 316° |
| 2026-04-25 01:32 | -33.32848 | 150.46614 | 18553 ft | 417 kts | 316° |
| 2026-04-25 01:32 | -33.30748 | 150.44196 | 18996 ft | 420 kts | 316° |
| 2026-04-25 01:32 | -33.28645 | 150.41779 | 19400 ft | 423 kts | 316° |
| 2026-04-25 01:32 | -33.26526 | 150.39343 | 19791 ft | 427 kts | 316° |
| 2026-04-25 01:33 | -33.24363 | 150.36861 | 20216 ft | 429 kts | 316° |
| 2026-04-25 01:33 | -33.22205 | 150.34384 | 20588 ft | 433 kts | 316° |
| 2026-04-25 01:33 | -33.20034 | 150.31894 | 20955 ft | 435 kts | 316° |
| 2026-04-25 01:33 | -33.17845 | 150.29387 | 21324 ft | 438 kts | 316° |
| 2026-04-25 01:34 | -33.15633 | 150.26854 | 21652 ft | 441 kts | 316° |
| 2026-04-25 01:34 | -33.13395 | 150.24293 | 21970 ft | 445 kts | 316° |
| 2026-04-25 01:34 | -33.11180 | 150.21762 | 22321 ft | 447 kts | 316° |
| 2026-04-25 01:34 | -33.08908 | 150.19168 | 22668 ft | 449 kts | 316° |
| 2026-04-25 01:35 | -33.06654 | 150.16594 | 22970 ft | 452 kts | 316° |
| 2026-04-25 01:35 | -33.04372 | 150.13991 | 23275 ft | 455 kts | 316° |
| 2026-04-25 01:35 | -33.02094 | 150.11395 | 23578 ft | 458 kts | 316° |
| 2026-04-25 01:35 | -32.99768 | 150.08746 | 23898 ft | 460 kts | 316° |
| 2026-04-25 01:36 | -32.97465 | 150.06126 | 24248 ft | 462 kts | 316° |
| 2026-04-25 01:36 | -32.95137 | 150.03479 | 24597 ft | 464 kts | 316° |
| 2026-04-25 01:36 | -32.92804 | 150.00829 | 24875 ft | 467 kts | 316° |
| 2026-04-25 01:36 | -32.90418 | 149.98119 | 25159 ft | 469 kts | 316° |
| 2026-04-25 01:37 | -32.88053 | 149.95435 | 25474 ft | 471 kts | 316° |
| 2026-04-25 01:37 | -32.85670 | 149.92732 | 25763 ft | 473 kts | 316° |
| 2026-04-25 01:37 | -32.83292 | 149.90041 | 26048 ft | 475 kts | 316° |
| 2026-04-25 01:37 | -32.80888 | 149.87320 | 26327 ft | 477 kts | 316° |
| 2026-04-25 01:38 | -32.78486 | 149.84604 | 26610 ft | 479 kts | 316° |
| 2026-04-25 01:38 | -32.76054 | 149.81856 | 26864 ft | 481 kts | 316° |
| 2026-04-25 01:38 | -32.73611 | 149.79097 | 27116 ft | 484 kts | 316° |
| 2026-04-25 01:38 | -32.71159 | 149.76331 | 27386 ft | 486 kts | 316° |
| 2026-04-25 01:39 | -32.68706 | 149.73567 | 27688 ft | 487 kts | 315° |
| 2026-04-25 01:39 | -32.66278 | 149.70831 | 27915 ft | 489 kts | 315° |
| 2026-04-25 01:39 | -32.63800 | 149.68042 | 28185 ft | 491 kts | 315° |
| 2026-04-25 01:39 | -32.61297 | 149.65228 | 28448 ft | 492 kts | 315° |
| 2026-04-25 01:40 | -32.58820 | 149.62444 | 28662 ft | 494 kts | 315° |
| 2026-04-25 01:40 | -32.56340 | 149.59637 | 28896 ft | 495 kts | 313° |
| 2026-04-25 01:40 | -32.54099 | 149.56511 | 29064 ft | 496 kts | 307° |
| 2026-04-25 01:40 | -32.51916 | 149.53330 | 29278 ft | 498 kts | 307° |
| 2026-04-25 01:41 | -32.49726 | 149.50151 | 29504 ft | 499 kts | 307° |
| 2026-04-25 01:41 | -32.47554 | 149.47005 | 29769 ft | 499 kts | 307° |
| 2026-04-25 01:41 | -32.45336 | 149.43796 | 30043 ft | 499 kts | 307° |
| 2026-04-25 01:41 | -32.43141 | 149.40624 | 30364 ft | 497 kts | 307° |
| 2026-04-25 01:42 | -32.40950 | 149.37459 | 30700 ft | 496 kts | 307° |
| 2026-04-25 01:42 | -32.38755 | 149.34291 | 31018 ft | 495 kts | 308° |
| 2026-04-25 01:42 | -32.36588 | 149.31166 | 31359 ft | 493 kts | 308° |
| 2026-04-25 01:42 | -32.34391 | 149.28001 | 31645 ft | 492 kts | 307° |
| 2026-04-25 01:43 | -32.32229 | 149.24889 | 31932 ft | 491 kts | 307° |
| 2026-04-25 01:43 | -32.30070 | 149.21783 | 32219 ft | 490 kts | 307° |
| 2026-04-25 01:43 | -32.27903 | 149.18669 | 32520 ft | 488 kts | 307° |
| 2026-04-25 01:43 | -32.25738 | 149.15561 | 32780 ft | 488 kts | 307° |
| 2026-04-25 01:44 | -32.23605 | 149.12501 | 33025 ft | 487 kts | 307° |
| 2026-04-25 01:44 | -32.21457 | 149.09421 | 33299 ft | 486 kts | 307° |
| 2026-04-25 01:44 | -32.19305 | 149.06340 | 33560 ft | 484 kts | 307° |
| 2026-04-25 01:44 | -32.17174 | 149.03290 | 33804 ft | 483 kts | 307° |
| 2026-04-25 01:45 | -32.15037 | 149.00235 | 34061 ft | 482 kts | 307° |
| 2026-04-25 01:45 | -32.12906 | 148.97189 | 34294 ft | 481 kts | 307° |
| 2026-04-25 01:45 | -32.08564 | 148.91107 | 34334 ft | 490 kts | 313° |
| 2026-04-25 01:46 | -32.05876 | 148.88655 | 34382 ft | 495 kts | 329° |
| 2026-04-25 01:46 | -32.02686 | 148.87074 | 34395 ft | 498 kts | 344° |
| 2026-04-25 01:46 | -31.99226 | 148.86519 | 34381 ft | 499 kts | 0° |
| 2026-04-25 01:46 | -31.95781 | 148.86717 | 34403 ft | 498 kts | 1° |
| 2026-04-25 01:47 | -31.88806 | 148.86353 | 34371 ft | 497 kts | 356° |
| 2026-04-25 01:47 | -31.81816 | 148.85854 | 34360 ft | 497 kts | 356° |
| 2026-04-25 01:48 | -31.74931 | 148.85358 | 34360 ft | 498 kts | 356° |
| 2026-04-25 01:48 | -31.68000 | 148.84860 | 34362 ft | 499 kts | 356° |
| 2026-04-25 01:49 | -31.61067 | 148.84363 | 34369 ft | 499 kts | 356° |
| 2026-04-25 01:49 | -31.54128 | 148.83865 | 34372 ft | 500 kts | 356° |
| 2026-04-25 01:50 | -31.47130 | 148.83363 | 34372 ft | 500 kts | 356° |
| 2026-04-25 01:50 | -31.40214 | 148.82871 | 34368 ft | 500 kts | 356° |
| 2026-04-25 01:51 | -31.33268 | 148.82375 | 34364 ft | 500 kts | 356° |
| 2026-04-25 01:51 | -31.26284 | 148.81876 | 34364 ft | 501 kts | 356° |
| 2026-04-25 01:52 | -31.19356 | 148.81383 | 34364 ft | 501 kts | 356° |
| 2026-04-25 01:52 | -31.12371 | 148.80887 | 34360 ft | 502 kts | 356° |
| 2026-04-25 01:53 | -31.05403 | 148.80394 | 34349 ft | 502 kts | 356° |
| 2026-04-25 01:53 | -30.98416 | 148.79898 | 34346 ft | 503 kts | 356° |
| 2026-04-25 01:54 | -30.91448 | 148.79405 | 34348 ft | 503 kts | 356° |
| 2026-04-25 01:54 | -30.84442 | 148.78909 | 34334 ft | 503 kts | 356° |
| 2026-04-25 01:55 | -30.77442 | 148.78415 | 34335 ft | 503 kts | 356° |
| 2026-04-25 01:55 | -30.70398 | 148.77919 | 34337 ft | 504 kts | 356° |
| 2026-04-25 01:56 | -30.63393 | 148.77428 | 34337 ft | 504 kts | 356° |
| 2026-04-25 01:56 | -30.56418 | 148.76938 | 34336 ft | 505 kts | 356° |
| 2026-04-25 01:57 | -30.45856 | 148.76198 | 34336 ft | 504 kts | 355° |
| 2026-04-25 01:58 | -30.38863 | 148.75709 | 34337 ft | 505 kts | 355° |
| 2026-04-25 01:58 | -30.31817 | 148.75217 | 34335 ft | 505 kts | 355° |
| 2026-04-25 01:59 | -30.24792 | 148.74727 | 34334 ft | 505 kts | 355° |
| 2026-04-25 01:59 | -30.17788 | 148.74239 | 34335 ft | 505 kts | 355° |
| 2026-04-25 02:00 | -30.10745 | 148.73750 | 34337 ft | 506 kts | 355° |
| 2026-04-25 02:00 | -30.03672 | 148.73257 | 34338 ft | 507 kts | 355° |
| 2026-04-25 02:01 | -29.96629 | 148.72771 | 34336 ft | 507 kts | 355° |
| 2026-04-25 02:01 | -29.89562 | 148.72281 | 34336 ft | 508 kts | 355° |
| 2026-04-25 02:02 | -29.82501 | 148.71793 | 34326 ft | 507 kts | 355° |
| 2026-04-25 02:02 | -29.75464 | 148.71307 | 34324 ft | 508 kts | 355° |
| 2026-04-25 02:03 | -29.68396 | 148.70819 | 34320 ft | 509 kts | 355° |
| 2026-04-25 02:03 | -29.61306 | 148.70331 | 34319 ft | 508 kts | 355° |
| 2026-04-25 02:04 | -29.54265 | 148.69849 | 34316 ft | 509 kts | 355° |
| 2026-04-25 02:04 | -29.47171 | 148.69360 | 34318 ft | 508 kts | 355° |
| 2026-04-25 02:05 | -29.40115 | 148.68877 | 34314 ft | 508 kts | 355° |
| 2026-04-25 02:05 | -29.33038 | 148.68391 | 34309 ft | 509 kts | 355° |
| 2026-04-25 02:06 | -29.25998 | 148.67911 | 34313 ft | 509 kts | 355° |
| 2026-04-25 02:06 | -29.18889 | 148.67425 | 34319 ft | 508 kts | 355° |
| 2026-04-25 02:07 | -29.11795 | 148.66942 | 34322 ft | 510 kts | 355° |
| 2026-04-25 02:07 | -29.04722 | 148.66460 | 34316 ft | 511 kts | 355° |
| 2026-04-25 02:08 | -28.97628 | 148.65977 | 34312 ft | 510 kts | 355° |
| 2026-04-25 02:08 | -28.90537 | 148.65495 | 34316 ft | 511 kts | 355° |
| 2026-04-25 02:09 | -28.83407 | 148.65012 | 34306 ft | 510 kts | 355° |
| 2026-04-25 02:09 | -28.76316 | 148.64531 | 34301 ft | 511 kts | 355° |
| 2026-04-25 02:10 | -28.69166 | 148.64049 | 34302 ft | 511 kts | 354° |
| 2026-04-25 02:10 | -28.62079 | 148.63570 | 34300 ft | 511 kts | 354° |
| 2026-04-25 02:11 | -28.54944 | 148.63089 | 34300 ft | 512 kts | 354° |
| 2026-04-25 02:11 | -28.47853 | 148.62610 | 34294 ft | 512 kts | 354° |
| 2026-04-25 02:12 | -28.40713 | 148.62131 | 34294 ft | 511 kts | 354° |
| 2026-04-25 02:12 | -28.33605 | 148.61653 | 34296 ft | 512 kts | 354° |
| 2026-04-25 02:13 | -28.26439 | 148.61171 | 34292 ft | 513 kts | 354° |
| 2026-04-25 02:13 | -28.19319 | 148.60696 | 34286 ft | 513 kts | 354° |
| 2026-04-25 02:14 | -28.12172 | 148.60216 | 34286 ft | 514 kts | 354° |
| 2026-04-25 02:14 | -28.05033 | 148.59740 | 34288 ft | 513 kts | 354° |
| 2026-04-25 02:15 | -27.97881 | 148.59261 | 34281 ft | 514 kts | 354° |
| 2026-04-25 02:15 | -27.90729 | 148.58784 | 34282 ft | 514 kts | 354° |
| 2026-04-25 02:16 | -27.83597 | 148.58311 | 34271 ft | 513 kts | 354° |
| 2026-04-25 02:16 | -27.76432 | 148.57835 | 34274 ft | 514 kts | 354° |
| 2026-04-25 02:17 | -27.69264 | 148.57359 | 34275 ft | 514 kts | 354° |
| 2026-04-25 02:17 | -27.62150 | 148.56888 | 34280 ft | 514 kts | 354° |
| 2026-04-25 02:18 | -27.54974 | 148.56413 | 34280 ft | 514 kts | 354° |
| 2026-04-25 02:18 | -27.47796 | 148.55939 | 34272 ft | 515 kts | 354° |
| 2026-04-25 02:19 | -27.40636 | 148.55466 | 34275 ft | 515 kts | 354° |
| 2026-04-25 02:19 | -27.33499 | 148.54996 | 34276 ft | 516 kts | 354° |
| 2026-04-25 02:20 | -27.26308 | 148.54523 | 34281 ft | 515 kts | 354° |
| 2026-04-25 02:20 | -27.19169 | 148.54053 | 34279 ft | 516 kts | 354° |
| 2026-04-25 02:21 | -27.11998 | 148.53581 | 34277 ft | 514 kts | 354° |
| 2026-04-25 02:21 | -27.04829 | 148.53113 | 34276 ft | 514 kts | 353° |
| 2026-04-25 02:22 | -26.97645 | 148.52640 | 34275 ft | 516 kts | 353° |
| 2026-04-25 02:22 | -26.90500 | 148.52173 | 34274 ft | 515 kts | 353° |
| 2026-04-25 02:23 | -26.83277 | 148.51701 | 34262 ft | 515 kts | 353° |
| 2026-04-25 02:23 | -26.76124 | 148.51234 | 34255 ft | 515 kts | 353° |
| 2026-04-25 02:24 | -26.68930 | 148.50766 | 34245 ft | 516 kts | 353° |
| 2026-04-25 02:24 | -26.61738 | 148.50296 | 34252 ft | 517 kts | 353° |
| 2026-04-25 02:25 | -26.54582 | 148.49832 | 34262 ft | 516 kts | 353° |
| 2026-04-25 02:25 | -26.47360 | 148.49364 | 34259 ft | 516 kts | 353° |
| 2026-04-25 02:26 | -26.40177 | 148.48898 | 34262 ft | 516 kts | 353° |
| 2026-04-25 02:26 | -26.32964 | 148.48430 | 34258 ft | 516 kts | 353° |
| 2026-04-25 02:27 | -26.25793 | 148.47966 | 34254 ft | 516 kts | 353° |
| 2026-04-25 02:27 | -26.18579 | 148.47501 | 34260 ft | 517 kts | 353° |
| 2026-04-25 02:28 | -26.11390 | 148.47035 | 34260 ft | 518 kts | 353° |
| 2026-04-25 02:28 | -26.04173 | 148.46578 | 34247 ft | 518 kts | 354° |
| 2026-04-25 02:28 | -26.00558 | 148.46820 | 34239 ft | 522 kts | 8° |
| 2026-04-25 02:29 | -25.96982 | 148.47664 | 34309 ft | 524 kts | 9° |
| 2026-04-25 02:29 | -25.89815 | 148.49203 | 34264 ft | 523 kts | 8° |
| 2026-04-25 02:30 | -25.82655 | 148.50697 | 34249 ft | 524 kts | 8° |
| 2026-04-25 02:30 | -25.75440 | 148.52199 | 34244 ft | 524 kts | 8° |
| 2026-04-25 02:31 | -25.68245 | 148.53696 | 34245 ft | 525 kts | 8° |
| 2026-04-25 02:31 | -25.61076 | 148.55185 | 34242 ft | 524 kts | 8° |
| 2026-04-25 02:32 | -25.53881 | 148.56676 | 34245 ft | 525 kts | 8° |
| 2026-04-25 02:32 | -25.46675 | 148.58168 | 34255 ft | 524 kts | 8° |
| 2026-04-25 02:33 | -25.39532 | 148.59645 | 34243 ft | 525 kts | 8° |
| 2026-04-25 02:33 | -25.32341 | 148.61133 | 34246 ft | 524 kts | 8° |
| 2026-04-25 02:34 | -25.25136 | 148.62617 | 34250 ft | 525 kts | 8° |
| 2026-04-25 02:34 | -25.17905 | 148.64108 | 34229 ft | 526 kts | 7° |
| 2026-04-25 02:35 | -25.10692 | 148.65593 | 34226 ft | 526 kts | 7° |
| 2026-04-25 02:35 | -25.03479 | 148.67076 | 34213 ft | 526 kts | 7° |
| 2026-04-25 02:36 | -24.96261 | 148.68558 | 34217 ft | 527 kts | 7° |
| 2026-04-25 02:36 | -24.89053 | 148.70038 | 34214 ft | 526 kts | 7° |
| 2026-04-25 02:37 | -24.81800 | 148.71523 | 34199 ft | 527 kts | 7° |
| 2026-04-25 02:37 | -24.74567 | 148.73004 | 34197 ft | 527 kts | 7° |
| 2026-04-25 02:38 | -24.67324 | 148.74483 | 34194 ft | 527 kts | 7° |
| 2026-04-25 02:38 | -24.60138 | 148.75951 | 34193 ft | 526 kts | 7° |
| 2026-04-25 02:39 | -24.52875 | 148.77432 | 34193 ft | 527 kts | 7° |
| 2026-04-25 02:39 | -24.45678 | 148.78897 | 34196 ft | 527 kts | 7° |
| 2026-04-25 02:40 | -24.38411 | 148.80376 | 34193 ft | 527 kts | 7° |
| 2026-04-25 02:40 | -24.31171 | 148.81847 | 34188 ft | 527 kts | 7° |
| 2026-04-25 02:41 | -24.23977 | 148.83307 | 34194 ft | 529 kts | 7° |
| 2026-04-25 02:41 | -24.16699 | 148.84782 | 34191 ft | 529 kts | 7° |
| 2026-04-25 02:42 | -24.09455 | 148.86249 | 34196 ft | 528 kts | 7° |
| 2026-04-25 02:42 | -24.02199 | 148.87717 | 34194 ft | 527 kts | 7° |
| 2026-04-25 02:43 | -23.94979 | 148.89175 | 34196 ft | 530 kts | 7° |
| 2026-04-25 02:43 | -23.87691 | 148.90646 | 34185 ft | 530 kts | 7° |
| 2026-04-25 02:44 | -23.80401 | 148.92117 | 34182 ft | 529 kts | 6° |
| 2026-04-25 02:44 | -23.73169 | 148.93570 | 34177 ft | 529 kts | 6° |
| 2026-04-25 02:45 | -23.65879 | 148.95038 | 34178 ft | 530 kts | 6° |
| 2026-04-25 02:45 | -23.58596 | 148.96501 | 34176 ft | 529 kts | 6° |
| 2026-04-25 02:46 | -23.51375 | 148.97948 | 34165 ft | 528 kts | 7° |
| 2026-04-25 02:46 | -23.44133 | 148.99402 | 34164 ft | 528 kts | 6° |
| 2026-04-25 02:47 | -23.36857 | 149.00858 | 34158 ft | 529 kts | 7° |
| 2026-04-25 02:47 | -23.29642 | 149.02300 | 34157 ft | 529 kts | 6° |
| 2026-04-25 02:48 | -23.22329 | 149.03760 | 34159 ft | 530 kts | 6° |
| 2026-04-25 02:48 | -23.15107 | 149.05202 | 34153 ft | 529 kts | 6° |
| 2026-04-25 02:49 | -23.07815 | 149.06654 | 34147 ft | 530 kts | 6° |
| 2026-04-25 02:49 | -23.00535 | 149.08105 | 34145 ft | 529 kts | 6° |
| 2026-04-25 02:50 | -22.93281 | 149.09547 | 34152 ft | 530 kts | 6° |
| 2026-04-25 02:50 | -22.86009 | 149.10992 | 34140 ft | 530 kts | 6° |
| 2026-04-25 02:51 | -22.78752 | 149.11873 | 34128 ft | 520 kts | 351° |
| 2026-04-25 02:51 | -22.71465 | 149.11429 | 34129 ft | 522 kts | 351° |
| 2026-04-25 02:52 | -22.64156 | 149.11073 | 34143 ft | 524 kts | 352° |
| 2026-04-25 02:52 | -22.56868 | 149.10728 | 34141 ft | 523 kts | 351° |
| 2026-04-25 02:53 | -22.49527 | 149.10382 | 34142 ft | 524 kts | 351° |
| 2026-04-25 02:53 | -22.42273 | 149.10039 | 34132 ft | 524 kts | 351° |
| 2026-04-25 02:54 | -22.34920 | 149.09689 | 34149 ft | 528 kts | 351° |
| 2026-04-25 02:54 | -22.27550 | 149.09343 | 34140 ft | 526 kts | 351° |
| 2026-04-25 02:55 | -22.20216 | 149.08995 | 34154 ft | 528 kts | 351° |
| 2026-04-25 02:55 | -22.12860 | 149.08650 | 34151 ft | 530 kts | 351° |
| 2026-04-25 02:56 | -22.05440 | 149.08299 | 34161 ft | 530 kts | 351° |
| 2026-04-25 02:56 | -21.98088 | 149.07956 | 34145 ft | 530 kts | 350° |
| 2026-04-25 02:57 | -21.90658 | 149.07608 | 34154 ft | 533 kts | 350° |
| 2026-04-25 02:57 | -21.83248 | 149.07262 | 34120 ft | 532 kts | 350° |
| 2026-04-25 02:58 | -21.75804 | 149.06912 | 34131 ft | 532 kts | 349° |
| 2026-04-25 02:58 | -21.68358 | 149.06485 | 34123 ft | 530 kts | 347° |
| 2026-04-25 02:59 | -21.60999 | 149.05861 | 34136 ft | 533 kts | 347° |
| 2026-04-25 02:59 | -21.53547 | 149.05249 | 34123 ft | 532 kts | 347° |
| 2026-04-25 03:00 | -21.46121 | 149.04637 | 34117 ft | 535 kts | 347° |
| 2026-04-25 03:00 | -21.38679 | 149.04028 | 34120 ft | 536 kts | 347° |
| 2026-04-25 03:01 | -21.31199 | 149.03413 | 34119 ft | 539 kts | 346° |
| 2026-04-25 03:01 | -21.23746 | 149.02803 | 34102 ft | 537 kts | 346° |
| 2026-04-25 03:02 | -21.16210 | 149.02187 | 34107 ft | 539 kts | 346° |
| 2026-04-25 03:02 | -21.08707 | 149.01576 | 34099 ft | 536 kts | 346° |
| 2026-04-25 03:03 | -21.01217 | 149.00963 | 34112 ft | 539 kts | 345° |
| 2026-04-25 03:03 | -20.93694 | 149.00351 | 34119 ft | 539 kts | 345° |
| 2026-04-25 03:04 | -20.86218 | 148.99741 | 34096 ft | 536 kts | 345° |
| 2026-04-25 03:04 | -20.78779 | 148.99133 | 34096 ft | 536 kts | 345° |
| 2026-04-25 03:05 | -20.67545 | 148.98221 | 34111 ft | 537 kts | 346° |
| 2026-04-25 03:05 | -20.60116 | 148.97617 | 34108 ft | 533 kts | 345° |
| 2026-04-25 03:06 | -20.52686 | 148.97011 | 34104 ft | 534 kts | 346° |
| 2026-04-25 03:06 | -20.45238 | 148.96410 | 34106 ft | 532 kts | 346° |
| 2026-04-25 03:07 | -20.40493 | 148.96027 | 34108 ft | 526 kts | 346° |
| 2026-04-25 03:07 | -20.33147 | 148.95360 | 34097 ft | 521 kts | 341° |
| 2026-04-25 03:08 | -20.26035 | 148.94066 | 34096 ft | 521 kts | 341° |
| 2026-04-25 03:08 | -20.18878 | 148.92845 | 34098 ft | 519 kts | 340° |
| 2026-04-25 03:09 | -20.11725 | 148.91637 | 34093 ft | 519 kts | 341° |
| 2026-04-25 03:09 | -20.04560 | 148.90430 | 34087 ft | 519 kts | 341° |
| 2026-04-25 03:10 | -19.97410 | 148.89223 | 34091 ft | 519 kts | 341° |
| 2026-04-25 03:10 | -19.90311 | 148.88028 | 34088 ft | 515 kts | 341° |
| 2026-04-25 03:11 | -19.83217 | 148.86833 | 34074 ft | 516 kts | 341° |
| 2026-04-25 03:11 | -19.76093 | 148.85632 | 34071 ft | 518 kts | 341° |
| 2026-04-25 03:12 | -19.68982 | 148.84441 | 34062 ft | 514 kts | 341° |
| 2026-04-25 03:12 | -19.61922 | 148.83256 | 34067 ft | 515 kts | 341° |
| 2026-04-25 03:13 | -19.54830 | 148.82068 | 34072 ft | 514 kts | 341° |
| 2026-04-25 03:13 | -19.47721 | 148.80876 | 34071 ft | 517 kts | 341° |
| 2026-04-25 03:14 | -19.40680 | 148.79697 | 34071 ft | 512 kts | 341° |
| 2026-04-25 03:14 | -19.33603 | 148.78516 | 34069 ft | 509 kts | 342° |
| 2026-04-25 03:15 | -19.26590 | 148.77345 | 34077 ft | 510 kts | 341° |
| 2026-04-25 03:15 | -19.19552 | 148.76167 | 34065 ft | 514 kts | 342° |
| 2026-04-25 03:16 | -19.12485 | 148.74988 | 34063 ft | 510 kts | 342° |
| 2026-04-25 03:16 | -19.05486 | 148.73824 | 34065 ft | 511 kts | 342° |
| 2026-04-25 03:17 | -18.98428 | 148.72649 | 34067 ft | 510 kts | 342° |
| 2026-04-25 03:17 | -18.91448 | 148.71484 | 34067 ft | 509 kts | 342° |
| 2026-04-25 03:18 | -18.84441 | 148.70320 | 34050 ft | 510 kts | 342° |
| 2026-04-25 03:18 | -18.77385 | 148.69150 | 34049 ft | 514 kts | 342° |
| 2026-04-25 03:19 | -18.70298 | 148.67973 | 34056 ft | 513 kts | 342° |
| 2026-04-25 03:19 | -18.63289 | 148.66812 | 34054 ft | 512 kts | 342° |
| 2026-04-25 03:20 | -18.56217 | 148.65640 | 34050 ft | 512 kts | 342° |
| 2026-04-25 03:20 | -18.49155 | 148.64471 | 34051 ft | 513 kts | 343° |
| 2026-04-25 03:21 | -18.42094 | 148.63306 | 34055 ft | 512 kts | 342° |
| 2026-04-25 03:21 | -18.35074 | 148.62144 | 34050 ft | 512 kts | 343° |
| 2026-04-25 03:22 | -18.28016 | 148.60979 | 34054 ft | 513 kts | 343° |
| 2026-04-25 03:22 | -18.20938 | 148.59811 | 34045 ft | 512 kts | 343° |
| 2026-04-25 03:23 | -18.13880 | 148.58649 | 34052 ft | 515 kts | 343° |
| 2026-04-25 03:23 | -18.06779 | 148.57478 | 34048 ft | 514 kts | 343° |
| 2026-04-25 03:24 | -17.99684 | 148.56313 | 34048 ft | 514 kts | 343° |
| 2026-04-25 03:24 | -17.92634 | 148.55153 | 34055 ft | 513 kts | 343° |
| 2026-04-25 03:25 | -17.85540 | 148.53987 | 34031 ft | 513 kts | 343° |
| 2026-04-25 03:25 | -17.78475 | 148.52828 | 34026 ft | 514 kts | 342° |
| 2026-04-25 03:26 | -17.71416 | 148.51669 | 34021 ft | 513 kts | 343° |
| 2026-04-25 03:26 | -17.64316 | 148.50505 | 34026 ft | 516 kts | 343° |
| 2026-04-25 03:27 | -17.57212 | 148.49344 | 34019 ft | 512 kts | 343° |
| 2026-04-25 03:27 | -17.50199 | 148.48195 | 34019 ft | 513 kts | 343° |
| 2026-04-25 03:28 | -17.43099 | 148.47034 | 34026 ft | 516 kts | 343° |
| 2026-04-25 03:28 | -17.35999 | 148.45874 | 34028 ft | 515 kts | 343° |
| 2026-04-25 03:29 | -17.28906 | 148.44716 | 34020 ft | 512 kts | 343° |
| 2026-04-25 03:29 | -17.21874 | 148.43568 | 34015 ft | 512 kts | 343° |
| 2026-04-25 03:30 | -17.14786 | 148.42413 | 34017 ft | 514 kts | 343° |
| 2026-04-25 03:30 | -17.07741 | 148.41267 | 34018 ft | 513 kts | 343° |
| 2026-04-25 03:31 | -17.00681 | 148.40115 | 34018 ft | 511 kts | 343° |
| 2026-04-25 03:31 | -16.93624 | 148.38969 | 34010 ft | 511 kts | 343° |
| 2026-04-25 03:32 | -16.86577 | 148.37825 | 34002 ft | 510 kts | 344° |
| 2026-04-25 03:32 | -16.79561 | 148.36684 | 34006 ft | 511 kts | 344° |
| 2026-04-25 03:33 | -16.72504 | 148.35539 | 33999 ft | 509 kts | 344° |
| 2026-04-25 03:33 | -16.65508 | 148.34404 | 34017 ft | 510 kts | 344° |
| 2026-04-25 03:34 | -16.58488 | 148.33269 | 34019 ft | 509 kts | 344° |
| 2026-04-25 03:34 | -16.51493 | 148.32135 | 34013 ft | 508 kts | 344° |
| 2026-04-25 03:35 | -16.44493 | 148.31003 | 34017 ft | 510 kts | 344° |
| 2026-04-25 03:35 | -16.37470 | 148.29866 | 34012 ft | 509 kts | 345° |
| 2026-04-25 03:36 | -16.30473 | 148.28735 | 34009 ft | 507 kts | 345° |
| 2026-04-25 03:36 | -16.23443 | 148.27602 | 34010 ft | 510 kts | 345° |
| 2026-04-25 03:37 | -16.16448 | 148.26476 | 34014 ft | 507 kts | 345° |
| 2026-04-25 03:37 | -16.09446 | 148.25343 | 34007 ft | 507 kts | 345° |
| 2026-04-25 03:38 | -16.02504 | 148.24226 | 34009 ft | 506 kts | 345° |
| 2026-04-25 03:38 | -15.95522 | 148.23103 | 34011 ft | 507 kts | 345° |
| 2026-04-25 03:39 | -15.88522 | 148.21977 | 34007 ft | 507 kts | 345° |
| 2026-04-25 03:39 | -15.81535 | 148.20854 | 34004 ft | 507 kts | 345° |
| 2026-04-25 03:40 | -15.74532 | 148.19730 | 34006 ft | 505 kts | 345° |
| 2026-04-25 03:40 | -15.67582 | 148.18611 | 34000 ft | 505 kts | 345° |
| 2026-04-25 03:41 | -15.60646 | 148.17502 | 33997 ft | 505 kts | 346° |
| 2026-04-25 03:41 | -15.53677 | 148.16386 | 33996 ft | 504 kts | 345° |
| 2026-04-25 03:42 | -15.46766 | 148.15280 | 33998 ft | 505 kts | 346° |
| 2026-04-25 03:42 | -15.39781 | 148.14162 | 33998 ft | 505 kts | 346° |
| 2026-04-25 03:43 | -15.32812 | 148.13049 | 33994 ft | 504 kts | 346° |
| 2026-04-25 03:43 | -15.25906 | 148.11946 | 33995 ft | 504 kts | 346° |
| 2026-04-25 03:44 | -15.18944 | 148.10835 | 33989 ft | 503 kts | 346° |
| 2026-04-25 03:44 | -15.12022 | 148.09731 | 33986 ft | 503 kts | 346° |
| 2026-04-25 03:45 | -15.05056 | 148.08621 | 33977 ft | 503 kts | 346° |
| 2026-04-25 03:45 | -14.98148 | 148.07520 | 33976 ft | 504 kts | 346° |
| 2026-04-25 03:46 | -14.91209 | 148.06416 | 33969 ft | 503 kts | 346° |
| 2026-04-25 03:46 | -14.84275 | 148.05313 | 33961 ft | 502 kts | 346° |
| 2026-04-25 03:47 | -14.77329 | 148.04208 | 33955 ft | 500 kts | 346° |
| 2026-04-25 03:47 | -14.70468 | 148.03117 | 33958 ft | 502 kts | 346° |
| 2026-04-25 03:48 | -14.63525 | 148.02017 | 33957 ft | 501 kts | 346° |
| 2026-04-25 03:48 | -14.56625 | 148.00922 | 33959 ft | 501 kts | 346° |
| 2026-04-25 03:49 | -14.49710 | 147.99826 | 33963 ft | 501 kts | 346° |
| 2026-04-25 03:49 | -14.42801 | 147.98730 | 33968 ft | 501 kts | 346° |
| 2026-04-25 03:50 | -14.35876 | 147.97633 | 33968 ft | 500 kts | 346° |
| 2026-04-25 03:50 | -14.29802 | 147.96674 | 33968 ft | 499 kts | 346° |
| 2026-04-25 03:51 | -14.22906 | 147.95583 | 33966 ft | 498 kts | 346° |
| 2026-04-25 03:51 | -14.16039 | 147.94496 | 33967 ft | 499 kts | 346° |
| 2026-04-25 03:52 | -14.09145 | 147.93407 | 33966 ft | 499 kts | 346° |
| 2026-04-25 03:52 | -14.02220 | 147.92313 | 33968 ft | 500 kts | 346° |
| 2026-04-25 03:53 | -13.95370 | 147.91232 | 33968 ft | 499 kts | 346° |
| 2026-04-25 03:53 | -13.88444 | 147.90141 | 33962 ft | 499 kts | 346° |
| 2026-04-25 03:54 | -13.81576 | 147.89058 | 33961 ft | 499 kts | 346° |
| 2026-04-25 03:54 | -13.74662 | 147.87970 | 33959 ft | 499 kts | 347° |
| 2026-04-25 03:55 | -13.67759 | 147.86883 | 33958 ft | 499 kts | 347° |
| 2026-04-25 03:55 | -13.60896 | 147.85802 | 33955 ft | 499 kts | 347° |
| 2026-04-25 03:56 | -13.53980 | 147.84715 | 33952 ft | 499 kts | 347° |
| 2026-04-25 03:56 | -13.47059 | 147.83627 | 33952 ft | 500 kts | 347° |
| 2026-04-25 03:57 | -13.40153 | 147.82544 | 33953 ft | 500 kts | 347° |
| 2026-04-25 03:57 | -13.33241 | 147.81459 | 33953 ft | 500 kts | 347° |
| 2026-04-25 03:58 | -13.26319 | 147.80373 | 33952 ft | 501 kts | 347° |
| 2026-04-25 03:58 | -13.19431 | 147.79292 | 33947 ft | 501 kts | 347° |
| 2026-04-25 03:59 | -13.12478 | 147.78204 | 33934 ft | 501 kts | 347° |
| 2026-04-25 03:59 | -13.05600 | 147.77125 | 33926 ft | 500 kts | 347° |
| 2026-04-25 04:00 | -12.98700 | 147.76047 | 33927 ft | 501 kts | 347° |
| 2026-04-25 04:00 | -12.91740 | 147.74959 | 33928 ft | 500 kts | 347° |
| 2026-04-25 04:01 | -12.84770 | 147.73868 | 33915 ft | 499 kts | 347° |
| 2026-04-25 04:01 | -12.77829 | 147.72783 | 33919 ft | 500 kts | 347° |
| 2026-04-25 04:02 | -12.70939 | 147.71707 | 33923 ft | 499 kts | 347° |
| 2026-04-25 04:02 | -12.64030 | 147.70630 | 33925 ft | 498 kts | 347° |
| 2026-04-25 04:03 | -12.57136 | 147.69554 | 33930 ft | 498 kts | 347° |
| 2026-04-25 04:03 | -12.50209 | 147.68475 | 33931 ft | 498 kts | 347° |
| 2026-04-25 04:04 | -12.43318 | 147.67401 | 33931 ft | 498 kts | 347° |
| 2026-04-25 04:04 | -12.36443 | 147.66330 | 33930 ft | 497 kts | 348° |
| 2026-04-25 04:05 | -12.29588 | 147.65263 | 33929 ft | 496 kts | 347° |
| 2026-04-25 04:05 | -12.22714 | 147.64194 | 33932 ft | 495 kts | 347° |
| 2026-04-25 04:06 | -12.15867 | 147.63130 | 33926 ft | 494 kts | 348° |
| 2026-04-25 04:06 | -12.09037 | 147.62068 | 33930 ft | 494 kts | 348° |
| 2026-04-25 04:07 | -12.02196 | 147.61006 | 33923 ft | 494 kts | 348° |
| 2026-04-25 04:07 | -11.95369 | 147.59946 | 33925 ft | 495 kts | 348° |
| 2026-04-25 04:08 | -11.88490 | 147.58879 | 33923 ft | 496 kts | 348° |
| 2026-04-25 04:08 | -11.81621 | 147.57816 | 33918 ft | 495 kts | 348° |
| 2026-04-25 04:09 | -11.74810 | 147.56760 | 33916 ft | 495 kts | 348° |
| 2026-04-25 04:09 | -11.67937 | 147.55696 | 33913 ft | 496 kts | 348° |
| 2026-04-25 04:10 | -11.61049 | 147.54631 | 33912 ft | 495 kts | 348° |
| 2026-04-25 04:10 | -11.54230 | 147.53575 | 33905 ft | 495 kts | 348° |
| 2026-04-25 04:11 | -11.43910 | 147.51981 | 33907 ft | 495 kts | 348° |
| 2026-04-25 04:12 | -11.37020 | 147.50915 | 33902 ft | 496 kts | 348° |
| 2026-04-25 04:12 | -11.30174 | 147.49858 | 33898 ft | 496 kts | 348° |
| 2026-04-25 04:13 | -11.23300 | 147.48798 | 33900 ft | 497 kts | 348° |
| 2026-04-25 04:13 | -11.16445 | 147.47740 | 33900 ft | 496 kts | 348° |
| 2026-04-25 04:14 | -11.09565 | 147.46681 | 33902 ft | 496 kts | 348° |
| 2026-04-25 04:14 | -11.02716 | 147.45625 | 33903 ft | 496 kts | 348° |
| 2026-04-25 04:15 | -10.95845 | 147.44566 | 33905 ft | 495 kts | 349° |
| 2026-04-25 04:15 | -10.88953 | 147.43506 | 33899 ft | 494 kts | 349° |
| 2026-04-25 04:16 | -10.82125 | 147.42454 | 33900 ft | 494 kts | 349° |
| 2026-04-25 04:16 | -10.75280 | 147.41403 | 33894 ft | 494 kts | 349° |
| 2026-04-25 04:17 | -10.68418 | 147.40346 | 33888 ft | 495 kts | 349° |
| 2026-04-25 04:17 | -10.61539 | 147.39290 | 33881 ft | 495 kts | 349° |
| 2026-04-25 04:18 | -10.54677 | 147.38235 | 33884 ft | 494 kts | 349° |
| 2026-04-25 04:18 | -10.47869 | 147.37190 | 33879 ft | 493 kts | 349° |
| 2026-04-25 04:19 | -10.41023 | 147.36140 | 33881 ft | 493 kts | 349° |
| 2026-04-25 04:19 | -10.34212 | 147.35095 | 33873 ft | 492 kts | 349° |
| 2026-04-25 04:20 | -10.27362 | 147.34045 | 33866 ft | 492 kts | 349° |
| 2026-04-25 04:20 | -10.20547 | 147.33000 | 33869 ft | 492 kts | 349° |
| 2026-04-25 04:21 | -10.13737 | 147.31958 | 33877 ft | 492 kts | 349° |
| 2026-04-25 04:21 | -10.06895 | 147.30910 | 33883 ft | 493 kts | 349° |
| 2026-04-25 04:22 | -10.00088 | 147.29868 | 33879 ft | 492 kts | 349° |
| 2026-04-25 04:22 | -9.93221 | 147.28818 | 33879 ft | 491 kts | 349° |
| 2026-04-25 04:23 | -9.86444 | 147.27780 | 33876 ft | 491 kts | 349° |
| 2026-04-25 04:23 | -9.79629 | 147.26739 | 33881 ft | 490 kts | 349° |
| 2026-04-25 04:24 | -9.72802 | 147.25696 | 33884 ft | 490 kts | 349° |
| 2026-04-25 04:24 | -9.66025 | 147.24660 | 33882 ft | 489 kts | 349° |
| 2026-04-25 04:25 | -9.59227 | 147.23622 | 33873 ft | 489 kts | 350° |
| 2026-04-25 04:25 | -9.52435 | 147.22586 | 33876 ft | 489 kts | 350° |
| 2026-04-25 04:26 | -9.45665 | 147.21553 | 33879 ft | 488 kts | 350° |
| 2026-04-25 04:26 | -9.38961 | 147.20378 | 33898 ft | 487 kts | 348° |
| 2026-04-25 04:27 | -9.32222 | 147.19186 | 33903 ft | 487 kts | 349° |
| 2026-04-25 04:27 | -9.25508 | 147.18001 | 33910 ft | 486 kts | 349° |
| 2026-04-25 04:28 | -9.18787 | 147.16815 | 33904 ft | 486 kts | 349° |
| 2026-04-25 04:28 | -9.12069 | 147.15630 | 33929 ft | 486 kts | 349° |
| 2026-04-25 04:29 | -9.05367 | 147.14447 | 33921 ft | 486 kts | 349° |
| 2026-04-25 04:29 | -8.98663 | 147.13266 | 33910 ft | 485 kts | 349° |
| 2026-04-25 04:30 | -8.91934 | 147.12079 | 33943 ft | 486 kts | 349° |
| 2026-04-25 04:30 | -8.85234 | 147.10899 | 33999 ft | 485 kts | 349° |
| 2026-04-25 04:31 | -8.78525 | 147.09717 | 34043 ft | 483 kts | 349° |
| 2026-04-25 04:31 | -8.71862 | 147.08545 | 34050 ft | 482 kts | 349° |
| 2026-04-25 04:32 | -8.65212 | 147.07375 | 34084 ft | 483 kts | 349° |
| 2026-04-25 04:32 | -8.58519 | 147.06197 | 34082 ft | 484 kts | 349° |
| 2026-04-25 04:33 | -8.51840 | 147.05023 | 34114 ft | 482 kts | 349° |
| 2026-04-25 04:33 | -8.45205 | 147.03851 | 34174 ft | 475 kts | 350° |
| 2026-04-25 04:34 | -8.38676 | 147.02710 | 34177 ft | 474 kts | 350° |
| 2026-04-25 04:34 | -8.32152 | 147.01561 | 34258 ft | 475 kts | 350° |
| 2026-04-25 04:35 | -8.25563 | 147.00404 | 34296 ft | 476 kts | 350° |
| 2026-04-25 04:35 | -8.19013 | 146.99257 | 34353 ft | 475 kts | 350° |
| 2026-04-25 04:36 | -8.12409 | 146.98097 | 34353 ft | 476 kts | 350° |
| 2026-04-25 04:36 | -8.05855 | 146.96948 | 34366 ft | 476 kts | 350° |
| 2026-04-25 04:37 | -7.99247 | 146.95789 | 34359 ft | 478 kts | 350° |
| 2026-04-25 04:37 | -7.92625 | 146.94627 | 34370 ft | 478 kts | 350° |
| 2026-04-25 04:38 | -7.86059 | 146.93477 | 34274 ft | 476 kts | 350° |
| 2026-04-25 04:38 | -7.79481 | 146.92323 | 34245 ft | 475 kts | 350° |
| 2026-04-25 04:39 | -7.72885 | 146.91168 | 34221 ft | 475 kts | 350° |
| 2026-04-25 04:39 | -7.66318 | 146.90019 | 34241 ft | 476 kts | 350° |
| 2026-04-25 04:40 | -7.59767 | 146.88872 | 34269 ft | 475 kts | 350° |
| 2026-04-25 04:40 | -7.53178 | 146.87720 | 34267 ft | 474 kts | 351° |
| 2026-04-25 04:41 | -7.46617 | 146.86571 | 34249 ft | 476 kts | 351° |
| 2026-04-25 04:41 | -7.40041 | 146.85420 | 34228 ft | 476 kts | 351° |
| 2026-04-25 04:42 | -7.33447 | 146.84268 | 34201 ft | 477 kts | 351° |
| 2026-04-25 04:42 | -7.26869 | 146.83119 | 34131 ft | 478 kts | 351° |
| 2026-04-25 04:43 | -7.20258 | 146.81964 | 34150 ft | 478 kts | 351° |
| 2026-04-25 04:43 | -7.13626 | 146.80804 | 34143 ft | 478 kts | 351° |
| 2026-04-25 04:44 | -7.07043 | 146.79656 | 34147 ft | 479 kts | 351° |
| 2026-04-25 04:44 | -7.00416 | 146.78499 | 34160 ft | 480 kts | 351° |
| 2026-04-25 04:45 | -6.93778 | 146.77341 | 34161 ft | 480 kts | 351° |
| 2026-04-25 04:45 | -6.87136 | 146.76181 | 34102 ft | 480 kts | 351° |
| 2026-04-25 04:46 | -6.80477 | 146.75020 | 34056 ft | 479 kts | 351° |
| 2026-04-25 04:46 | -6.73861 | 146.73866 | 34006 ft | 479 kts | 351° |
| 2026-04-25 04:47 | -6.67252 | 146.72714 | 33987 ft | 480 kts | 351° |
| 2026-04-25 04:47 | -6.60597 | 146.71555 | 33985 ft | 481 kts | 351° |
| 2026-04-25 04:48 | -6.53955 | 146.70578 | 33961 ft | 479 kts | 358° |
| 2026-04-25 04:48 | -6.47242 | 146.70056 | 33972 ft | 479 kts | 356° |
| 2026-04-25 04:49 | -6.40530 | 146.69476 | 34049 ft | 478 kts | 356° |
| 2026-04-25 04:49 | -6.33853 | 146.68895 | 34122 ft | 478 kts | 356° |
| 2026-04-25 04:50 | -6.27183 | 146.68315 | 34197 ft | 479 kts | 356° |
| 2026-04-25 04:50 | -6.20498 | 146.67734 | 34232 ft | 479 kts | 356° |
| 2026-04-25 04:51 | -6.13804 | 146.67151 | 34189 ft | 479 kts | 356° |
| 2026-04-25 04:51 | -6.07106 | 146.66568 | 34168 ft | 479 kts | 356° |
| 2026-04-25 04:52 | -6.00414 | 146.65987 | 34150 ft | 479 kts | 356° |
| 2026-04-25 04:52 | -5.93697 | 146.65404 | 34115 ft | 479 kts | 356° |
| 2026-04-25 04:53 | -5.87000 | 146.64821 | 34059 ft | 479 kts | 356° |
| 2026-04-25 04:53 | -5.80326 | 146.64241 | 34010 ft | 479 kts | 356° |
| 2026-04-25 04:54 | -5.73610 | 146.63657 | 33940 ft | 480 kts | 356° |
| 2026-04-25 04:54 | -5.66928 | 146.63077 | 33928 ft | 480 kts | 356° |
| 2026-04-25 04:55 | -5.60228 | 146.62494 | 33899 ft | 479 kts | 357° |
| 2026-04-25 04:55 | -5.53487 | 146.61911 | 33882 ft | 480 kts | 357° |
| 2026-04-25 04:56 | -5.46784 | 146.61328 | 33870 ft | 480 kts | 357° |
| 2026-04-25 04:56 | -5.40114 | 146.60750 | 33854 ft | 480 kts | 357° |
| 2026-04-25 04:57 | -5.33407 | 146.60169 | 33846 ft | 479 kts | 357° |
| 2026-04-25 04:57 | -5.26689 | 146.59584 | 33841 ft | 480 kts | 357° |
| 2026-04-25 04:58 | -5.19953 | 146.59000 | 33841 ft | 480 kts | 357° |
| 2026-04-25 04:58 | -5.13262 | 146.58421 | 33827 ft | 480 kts | 357° |
| 2026-04-25 04:59 | -5.06543 | 146.57838 | 33829 ft | 480 kts | 358° |
| 2026-04-25 04:59 | -4.99845 | 146.57259 | 33826 ft | 480 kts | 358° |
| 2026-04-25 05:00 | -4.93137 | 146.56677 | 33828 ft | 480 kts | 357° |
| 2026-04-25 05:00 | -4.86419 | 146.56094 | 33824 ft | 480 kts | 358° |
| 2026-04-25 05:01 | -4.79670 | 146.55512 | 33828 ft | 480 kts | 357° |
| 2026-04-25 05:01 | -4.72958 | 146.54930 | 33829 ft | 481 kts | 357° |
| 2026-04-25 05:02 | -4.66257 | 146.54350 | 33839 ft | 480 kts | 357° |
| 2026-04-25 05:02 | -4.59518 | 146.53766 | 33844 ft | 479 kts | 358° |
| 2026-04-25 05:03 | -4.52821 | 146.53186 | 33844 ft | 480 kts | 357° |
| 2026-04-25 05:03 | -4.46145 | 146.52609 | 33841 ft | 480 kts | 358° |
| 2026-04-25 05:04 | -4.39407 | 146.52026 | 33843 ft | 480 kts | 358° |
| 2026-04-25 05:04 | -4.32709 | 146.51447 | 33843 ft | 480 kts | 358° |
| 2026-04-25 05:05 | -4.26003 | 146.50867 | 33842 ft | 480 kts | 358° |
| 2026-04-25 05:05 | -4.19278 | 146.50285 | 33844 ft | 479 kts | 358° |
| 2026-04-25 05:06 | -4.12586 | 146.49707 | 33843 ft | 479 kts | 358° |
| 2026-04-25 05:06 | -4.05878 | 146.49127 | 33843 ft | 480 kts | 358° |
| 2026-04-25 05:07 | -3.99165 | 146.48547 | 33844 ft | 480 kts | 358° |
| 2026-04-25 05:07 | -3.92459 | 146.47967 | 33845 ft | 480 kts | 358° |
| 2026-04-25 05:08 | -3.85760 | 146.47389 | 33845 ft | 479 kts | 358° |
| 2026-04-25 05:08 | -3.79036 | 146.46809 | 33845 ft | 479 kts | 358° |
| 2026-04-25 05:09 | -3.72363 | 146.46233 | 33845 ft | 479 kts | 358° |
| 2026-04-25 05:09 | -3.65661 | 146.45653 | 33845 ft | 479 kts | 358° |
| 2026-04-25 05:10 | -3.58940 | 146.45073 | 33844 ft | 479 kts | 358° |
| 2026-04-25 05:10 | -3.52262 | 146.44498 | 33838 ft | 479 kts | 358° |
| 2026-04-25 05:11 | -3.45572 | 146.43918 | 33835 ft | 480 kts | 358° |
| 2026-04-25 05:11 | -3.38845 | 146.43339 | 33838 ft | 479 kts | 358° |
| 2026-04-25 05:12 | -3.28795 | 146.42471 | 33836 ft | 478 kts | 358° |
| 2026-04-25 05:12 | -3.22116 | 146.41896 | 33839 ft | 478 kts | 357° |
| 2026-04-25 05:13 | -3.15443 | 146.41319 | 33839 ft | 478 kts | 358° |
| 2026-04-25 05:13 | -3.08751 | 146.40742 | 33834 ft | 479 kts | 357° |